sensor_id;sensor_type;location;lat;lon;timestamp;pressure;altitude;pressure_sealevel;temperature;humidity
70930;BME280;58588;48.102;19.682;2024-03-02T00:02:33;98890.19;;;8.76;100.00
70930;BME280;58588;48.102;19.682;2024-03-02T00:05:35;98890.19;;;8.31;100.00
70930;BME280;58588;48.102;19.682;2024-03-02T00:08:38;98897.81;;;8.43;100.00
70930;BME280;58588;48.102;19.682;2024-03-02T00:11:40;98896.25;;;8.48;100.00
70930;BME280;58588;48.102;19.682;2024-03-02T00:14:43;98899.75;;;8.34;100.00
70930;BME280;58588;48.102;19.682;2024-03-02T00:17:45;98897.81;;;8.28;100.00
70930;BME280;58588;48.102;19.682;2024-03-02T00:20:47;98893.72;;;8.32;100.00
70930;BME280;58588;48.102;19.682;2024-03-02T00:23:49;98887.53;;;8.46;100.00
70930;BME280;58588;48.102;19.682;2024-03-02T00:26:52;98881.50;;;8.59;100.00
70930;BME280;58588;48.102;19.682;2024-03-02T00:29:56;98892.53;;;8.64;100.00
70930;BME280;58588;48.102;19.682;2024-03-02T00:32:59;98882.19;;;8.82;100.00
70930;BME280;58588;48.102;19.682;2024-03-02T00:36:03;98881.84;;;8.71;100.00
70930;BME280;58588;48.102;19.682;2024-03-02T00:39:05;98883.47;;;8.36;100.00
70930;BME280;58588;48.102;19.682;2024-03-02T00:42:08;98883.28;;;8.37;100.00
70930;BME280;58588;48.102;19.682;2024-03-02T00:45:12;98879.38;;;8.25;100.00
70930;BME280;58588;48.102;19.682;2024-03-02T00:48:15;98886.53;;;8.47;100.00
70930;BME280;58588;48.102;19.682;2024-03-02T00:51:20;98880.22;;;8.40;100.00
70930;BME280;58588;48.102;19.682;2024-03-02T00:54:25;98875.03;;;8.39;100.00
70930;BME280;58588;48.102;19.682;2024-03-02T00:57:30;98869.19;;;8.50;100.00
70930;BME280;58588;48.102;19.682;2024-03-02T01:00:36;98854.16;;;8.55;100.00
70930;BME280;58588;48.102;19.682;2024-03-02T01:03:38;98856.50;;;8.44;100.00
70930;BME280;58588;48.102;19.682;2024-03-02T01:06:42;98857.88;;;8.54;100.00
70930;BME280;58588;48.102;19.682;2024-03-02T01:09:44;98868.19;;;8.36;100.00
70930;BME280;58588;48.102;19.682;2024-03-02T01:12:56;98864.63;;;8.50;100.00
70930;BME280;58588;48.102;19.682;2024-03-02T01:15:59;98856.94;;;8.62;100.00
70930;BME280;58588;48.102;19.682;2024-03-02T01:19:01;98863.13;;;8.63;100.00
70930;BME280;58588;48.102;19.682;2024-03-02T01:22:04;98866.56;;;8.56;100.00
70930;BME280;58588;48.102;19.682;2024-03-02T01:25:08;98872.06;;;8.48;100.00
70930;BME280;58588;48.102;19.682;2024-03-02T01:28:10;98869.50;;;8.40;100.00
70930;BME280;58588;48.102;19.682;2024-03-02T01:31:13;98863.53;;;8.30;100.00
70930;BME280;58588;48.102;19.682;2024-03-02T01:34:15;98863.53;;;8.30;100.00
70930;BME280;58588;48.102;19.682;2024-03-02T01:37:17;98862.34;;;8.18;100.00
70930;BME280;58588;48.102;19.682;2024-03-02T01:40:19;98853.97;;;8.27;100.00
70930;BME280;58588;48.102;19.682;2024-03-02T01:43:21;98858.75;;;8.11;100.00
70930;BME280;58588;48.102;19.682;2024-03-02T01:46:24;98855.69;;;7.99;100.00
70930;BME280;58588;48.102;19.682;2024-03-02T01:49:26;98841.22;;;8.29;100.00
70930;BME280;58588;48.102;19.682;2024-03-02T01:52:28;98847.34;;;8.09;100.00
70930;BME280;58588;48.102;19.682;2024-03-02T01:55:30;98854.72;;;8.21;100.00
70930;BME280;58588;48.102;19.682;2024-03-02T01:58:31;98849.19;;;8.38;100.00
70930;BME280;58588;48.102;19.682;2024-03-02T02:01:35;98847.69;;;8.35;100.00
70930;BME280;58588;48.102;19.682;2024-03-02T02:04:36;98849.66;;;8.41;100.00
70930;BME280;58588;48.102;19.682;2024-03-02T02:07:38;98843.41;;;8.55;100.00
70930;BME280;58588;48.102;19.682;2024-03-02T02:10:41;98830.53;;;8.66;100.00
70930;BME280;58588;48.102;19.682;2024-03-02T02:13:43;98834.81;;;8.81;100.00
70930;BME280;58588;48.102;19.682;2024-03-02T02:16:47;98825.28;;;8.79;100.00
70930;BME280;58588;48.102;19.682;2024-03-02T02:19:49;98822.47;;;8.87;100.00
70930;BME280;58588;48.102;19.682;2024-03-02T02:22:59;98825.97;;;8.66;100.00
70930;BME280;58588;48.102;19.682;2024-03-02T02:26:02;98826.44;;;8.70;100.00
70930;BME280;58588;48.102;19.682;2024-03-02T02:29:04;98838.59;;;8.51;100.00
70930;BME280;58588;48.102;19.682;2024-03-02T02:32:06;98844.09;;;8.43;100.00
70930;BME280;58588;48.102;19.682;2024-03-02T02:35:08;98844.72;;;8.60;100.00
70930;BME280;58588;48.102;19.682;2024-03-02T02:38:11;98849.09;;;8.82;100.00
70930;BME280;58588;48.102;19.682;2024-03-02T02:41:13;98846.78;;;8.79;100.00
70930;BME280;58588;48.102;19.682;2024-03-02T02:44:15;98840.19;;;8.81;100.00
70930;BME280;58588;48.102;19.682;2024-03-02T02:47:17;98853.31;;;8.70;100.00
70930;BME280;58588;48.102;19.682;2024-03-02T02:50:18;98852.91;;;8.73;100.00
70930;BME280;58588;48.102;19.682;2024-03-02T02:53:22;98859.13;;;8.73;100.00
70930;BME280;58588;48.102;19.682;2024-03-02T02:56:24;98856.06;;;8.98;100.00
70930;BME280;58588;48.102;19.682;2024-03-02T02:59:26;98859.53;;;8.92;100.00
70930;BME280;58588;48.102;19.682;2024-03-02T03:02:28;98854.09;;;8.85;100.00
70930;BME280;58588;48.102;19.682;2024-03-02T03:05:29;98857.41;;;8.51;100.00
70930;BME280;58588;48.102;19.682;2024-03-02T03:08:33;98853.91;;;8.50;100.00
70930;BME280;58588;48.102;19.682;2024-03-02T03:11:35;98859.97;;;8.74;100.00
70930;BME280;58588;48.102;19.682;2024-03-02T03:14:36;98860.63;;;8.97;100.00
70930;BME280;58588;48.102;19.682;2024-03-02T03:17:38;98848.41;;;8.95;100.00
70930;BME280;58588;48.102;19.682;2024-03-02T03:20:40;98860.69;;;9.04;100.00
70930;BME280;58588;48.102;19.682;2024-03-02T03:23:43;98859.03;;;9.24;100.00
70930;BME280;58588;48.102;19.682;2024-03-02T03:26:45;98867.63;;;9.13;100.00
70930;BME280;58588;48.102;19.682;2024-03-02T03:29:47;98858.31;;;9.16;100.00
70930;BME280;58588;48.102;19.682;2024-03-02T03:32:49;98857.44;;;9.30;100.00
70930;BME280;58588;48.102;19.682;2024-03-02T03:35:51;98867.28;;;9.44;100.00
70930;BME280;58588;48.102;19.682;2024-03-02T03:38:55;98871.94;;;8.93;100.00
70930;BME280;58588;48.102;19.682;2024-03-02T03:41:58;98874.06;;;9.40;100.00
70930;BME280;58588;48.102;19.682;2024-03-02T03:44:59;98861.41;;;9.62;100.00
70930;BME280;58588;48.102;19.682;2024-03-02T03:48:01;98861.13;;;9.29;100.00
70930;BME280;58588;48.102;19.682;2024-03-02T03:51:04;98862.81;;;9.30;100.00
70930;BME280;58588;48.102;19.682;2024-03-02T03:54:07;98860.66;;;9.47;100.00
70930;BME280;58588;48.102;19.682;2024-03-02T03:57:11;98864.97;;;9.69;100.00
70930;BME280;58588;48.102;19.682;2024-03-02T04:00:14;98866.47;;;9.72;100.00
70930;BME280;58588;48.102;19.682;2024-03-02T04:03:16;98871.41;;;9.68;100.00
70930;BME280;58588;48.102;19.682;2024-03-02T04:06:18;98872.25;;;9.47;100.00
70930;BME280;58588;48.102;19.682;2024-03-02T04:09:21;98867.53;;;9.49;100.00
70930;BME280;58588;48.102;19.682;2024-03-02T04:12:23;98873.00;;;9.62;100.00
70930;BME280;58588;48.102;19.682;2024-03-02T04:15:25;98870.56;;;9.68;100.00
70930;BME280;58588;48.102;19.682;2024-03-02T04:18:27;98874.41;;;9.58;100.00
70930;BME280;58588;48.102;19.682;2024-03-02T04:21:29;98868.88;;;9.60;100.00
70930;BME280;58588;48.102;19.682;2024-03-02T04:24:32;98878.00;;;9.65;100.00
70930;BME280;58588;48.102;19.682;2024-03-02T04:27:34;98888.22;;;9.77;100.00
70930;BME280;58588;48.102;19.682;2024-03-02T04:30:36;98889.00;;;9.71;100.00
70930;BME280;58588;48.102;19.682;2024-03-02T04:33:37;98891.91;;;9.69;100.00
70930;BME280;58588;48.102;19.682;2024-03-02T04:36:39;98894.00;;;9.74;100.00
70930;BME280;58588;48.102;19.682;2024-03-02T04:39:42;98896.28;;;9.49;100.00
70930;BME280;58588;48.102;19.682;2024-03-02T04:42:44;98906.84;;;9.50;100.00
70930;BME280;58588;48.102;19.682;2024-03-02T04:45:46;98903.28;;;9.71;100.00
70930;BME280;58588;48.102;19.682;2024-03-02T04:48:48;98907.16;;;9.62;100.00
70930;BME280;58588;48.102;19.682;2024-03-02T04:51:55;98911.78;;;9.68;100.00
70930;BME280;58588;48.102;19.682;2024-03-02T04:54:58;98910.09;;;9.95;100.00
70930;BME280;58588;48.102;19.682;2024-03-02T04:58:30;98910.25;;;9.87;100.00
70930;BME280;58588;48.102;19.682;2024-03-02T05:01:32;98914.13;;;9.78;100.00
70930;BME280;58588;48.102;19.682;2024-03-02T05:04:34;98908.91;;;9.76;100.00
70930;BME280;58588;48.102;19.682;2024-03-02T05:07:36;98904.97;;;9.72;100.00
70930;BME280;58588;48.102;19.682;2024-03-02T05:10:39;98917.16;;;9.68;100.00
70930;BME280;58588;48.102;19.682;2024-03-02T05:13:41;98924.41;;;9.25;100.00
70930;BME280;58588;48.102;19.682;2024-03-02T05:16:43;98918.25;;;9.52;100.00
70930;BME280;58588;48.102;19.682;2024-03-02T05:19:45;98924.59;;;9.66;100.00
70930;BME280;58588;48.102;19.682;2024-03-02T05:22:46;98928.44;;;9.78;100.00
70930;BME280;58588;48.102;19.682;2024-03-02T05:25:50;98925.72;;;9.78;100.00
70930;BME280;58588;48.102;19.682;2024-03-02T05:28:52;98926.00;;;9.62;100.00
70930;BME280;58588;48.102;19.682;2024-03-02T05:31:54;98930.56;;;9.89;100.00
70930;BME280;58588;48.102;19.682;2024-03-02T05:34:55;98934.28;;;9.88;100.00
70930;BME280;58588;48.102;19.682;2024-03-02T05:37:57;98934.81;;;9.77;100.00
70930;BME280;58588;48.102;19.682;2024-03-02T05:41:01;98938.88;;;9.67;100.00
70930;BME280;58588;48.102;19.682;2024-03-02T05:44:03;98947.06;;;9.58;100.00
70930;BME280;58588;48.102;19.682;2024-03-02T05:47:05;98945.56;;;9.99;100.00
70930;BME280;58588;48.102;19.682;2024-03-02T05:50:09;98942.69;;;10.07;100.00
70930;BME280;58588;48.102;19.682;2024-03-02T05:53:11;98947.75;;;10.16;100.00
70930;BME280;58588;48.102;19.682;2024-03-02T05:56:14;98952.41;;;10.01;100.00
70930;BME280;58588;48.102;19.682;2024-03-02T05:59:16;98938.16;;;10.07;100.00
70930;BME280;58588;48.102;19.682;2024-03-02T06:02:18;98950.47;;;10.44;100.00
70930;BME280;58588;48.102;19.682;2024-03-02T06:05:19;98946.03;;;10.37;100.00
70930;BME280;58588;48.102;19.682;2024-03-02T06:08:21;98949.03;;;10.55;100.00
70930;BME280;58588;48.102;19.682;2024-03-02T06:11:25;98954.28;;;10.29;100.00
70930;BME280;58588;48.102;19.682;2024-03-02T06:14:26;98951.47;;;10.15;100.00
70930;BME280;58588;48.102;19.682;2024-03-02T06:17:28;98952.44;;;10.29;100.00
70930;BME280;58588;48.102;19.682;2024-03-02T06:20:30;98945.84;;;10.32;100.00
70930;BME280;58588;48.102;19.682;2024-03-02T06:23:32;98952.63;;;10.28;100.00
70930;BME280;58588;48.102;19.682;2024-03-02T06:26:36;98948.56;;;10.38;100.00
70930;BME280;58588;48.102;19.682;2024-03-02T06:29:39;98952.75;;;10.48;100.00
70930;BME280;58588;48.102;19.682;2024-03-02T06:32:42;98944.34;;;10.29;100.00
70930;BME280;58588;48.102;19.682;2024-03-02T06:35:44;98953.84;;;10.25;100.00
70930;BME280;58588;48.102;19.682;2024-03-02T06:38:46;98954.00;;;10.45;100.00
70930;BME280;58588;48.102;19.682;2024-03-02T06:41:49;98953.25;;;10.64;100.00
70930;BME280;58588;48.102;19.682;2024-03-02T06:44:51;98952.25;;;10.72;100.00
70930;BME280;58588;48.102;19.682;2024-03-02T06:47:54;98951.28;;;10.80;100.00
70930;BME280;58588;48.102;19.682;2024-03-02T06:50:55;98954.41;;;10.90;100.00
70930;BME280;58588;48.102;19.682;2024-03-02T06:53:58;98952.94;;;10.87;100.00
70930;BME280;58588;48.102;19.682;2024-03-02T06:57:02;98955.50;;;11.02;100.00
70930;BME280;58588;48.102;19.682;2024-03-02T07:00:05;98953.84;;;11.08;100.00
70930;BME280;58588;48.102;19.682;2024-03-02T07:03:09;98960.56;;;10.77;100.00
70930;BME280;58588;48.102;19.682;2024-03-02T07:06:11;98961.78;;;10.68;100.00
70930;BME280;58588;48.102;19.682;2024-03-02T07:09:13;98967.28;;;10.94;100.00
70930;BME280;58588;48.102;19.682;2024-03-02T07:12:16;98966.38;;;11.22;100.00
70930;BME280;58588;48.102;19.682;2024-03-02T07:15:18;98970.94;;;11.28;100.00
70930;BME280;58588;48.102;19.682;2024-03-02T07:18:33;98967.25;;;11.42;100.00
70930;BME280;58588;48.102;19.682;2024-03-02T07:21:41;98976.59;;;11.46;100.00
70930;BME280;58588;48.102;19.682;2024-03-02T07:24:43;98977.44;;;11.47;100.00
70930;BME280;58588;48.102;19.682;2024-03-02T07:27:47;98983.63;;;11.28;100.00
70930;BME280;58588;48.102;19.682;2024-03-02T07:30:58;98985.69;;;11.32;100.00
70930;BME280;58588;48.102;19.682;2024-03-02T07:34:00;98984.94;;;11.58;100.00
70930;BME280;58588;48.102;19.682;2024-03-02T07:37:02;98979.94;;;11.75;100.00
70930;BME280;58588;48.102;19.682;2024-03-02T07:40:05;98983.69;;;11.80;100.00
70930;BME280;58588;48.102;19.682;2024-03-02T07:43:11;98979.38;;;11.86;100.00
70930;BME280;58588;48.102;19.682;2024-03-02T07:46:13;98973.50;;;11.69;100.00
70930;BME280;58588;48.102;19.682;2024-03-02T07:49:15;98984.59;;;11.88;100.00
70930;BME280;58588;48.102;19.682;2024-03-02T07:52:17;98983.94;;;11.99;100.00
70930;BME280;58588;48.102;19.682;2024-03-02T07:55:18;98979.59;;;11.91;100.00
70930;BME280;58588;48.102;19.682;2024-03-02T07:58:22;98978.75;;;11.91;100.00
70930;BME280;58588;48.102;19.682;2024-03-02T08:01:24;98983.31;;;12.10;100.00
70930;BME280;58588;48.102;19.682;2024-03-02T08:04:25;98984.56;;;11.81;100.00
70930;BME280;58588;48.102;19.682;2024-03-02T08:07:27;98973.47;;;11.56;100.00
70930;BME280;58588;48.102;19.682;2024-03-02T08:10:29;98983.31;;;11.84;100.00
70930;BME280;58588;48.102;19.682;2024-03-02T08:13:32;98984.56;;;11.81;100.00
70930;BME280;58588;48.102;19.682;2024-03-02T08:16:34;98974.19;;;11.98;100.00
70930;BME280;58588;48.102;19.682;2024-03-02T08:19:36;98981.03;;;12.14;100.00
70930;BME280;58588;48.102;19.682;2024-03-02T08:22:39;98978.34;;;12.07;100.00
70930;BME280;58588;48.102;19.682;2024-03-02T08:25:42;98985.38;;;12.28;100.00
70930;BME280;58588;48.102;19.682;2024-03-02T08:28:45;98981.44;;;12.37;100.00
70930;BME280;58588;48.102;19.682;2024-03-02T08:31:47;98990.59;;;12.36;100.00
70930;BME280;58588;48.102;19.682;2024-03-02T08:34:49;98990.59;;;12.29;100.00
70930;BME280;58588;48.102;19.682;2024-03-02T08:37:51;99000.75;;;12.34;100.00
70930;BME280;58588;48.102;19.682;2024-03-02T08:40:53;98997.22;;;12.40;100.00
70930;BME280;58588;48.102;19.682;2024-03-02T08:43:57;99000.13;;;12.45;100.00
70930;BME280;58588;48.102;19.682;2024-03-02T08:46:59;99008.03;;;12.40;100.00
70930;BME280;58588;48.102;19.682;2024-03-02T08:50:01;98996.38;;;12.66;100.00
70930;BME280;58588;48.102;19.682;2024-03-02T08:53:04;99007.63;;;12.43;100.00
70930;BME280;58588;48.102;19.682;2024-03-02T08:56:06;99002.00;;;12.45;100.00
70930;BME280;58588;48.102;19.682;2024-03-02T08:59:09;99003.44;;;12.47;100.00
70930;BME280;58588;48.102;19.682;2024-03-02T09:02:12;98998.63;;;12.69;100.00
70930;BME280;58588;48.102;19.682;2024-03-02T09:05:14;98998.41;;;12.84;100.00
70930;BME280;58588;48.102;19.682;2024-03-02T09:08:16;99000.84;;;12.99;100.00
70930;BME280;58588;48.102;19.682;2024-03-02T09:11:18;99008.34;;;12.97;100.00
70930;BME280;58588;48.102;19.682;2024-03-02T09:14:21;99009.41;;;12.82;100.00
70930;BME280;58588;48.102;19.682;2024-03-02T09:17:24;99009.72;;;12.48;100.00
70930;BME280;58588;48.102;19.682;2024-03-02T09:20:26;99012.75;;;12.84;100.00
70930;BME280;58588;48.102;19.682;2024-03-02T09:23:27;99005.84;;;12.95;100.00
70930;BME280;58588;48.102;19.682;2024-03-02T09:26:29;99010.16;;;13.09;100.00
70930;BME280;58588;48.102;19.682;2024-03-02T09:29:33;99006.16;;;13.25;100.00
70930;BME280;58588;48.102;19.682;2024-03-02T09:32:35;99001.81;;;13.24;100.00
70930;BME280;58588;48.102;19.682;2024-03-02T09:35:37;99008.16;;;13.43;100.00
70930;BME280;58588;48.102;19.682;2024-03-02T09:38:39;99007.84;;;13.64;100.00
70930;BME280;58588;48.102;19.682;2024-03-02T09:41:41;99008.63;;;13.72;100.00
70930;BME280;58588;48.102;19.682;2024-03-02T09:44:44;99010.38;;;13.91;100.00
70930;BME280;58588;48.102;19.682;2024-03-02T09:47:46;99006.91;;;14.09;100.00
70930;BME280;58588;48.102;19.682;2024-03-02T09:50:50;99010.03;;;13.81;100.00
70930;BME280;58588;48.102;19.682;2024-03-02T09:53:55;99007.53;;;13.79;100.00
70930;BME280;58588;48.102;19.682;2024-03-02T09:56:57;99008.22;;;13.75;100.00
70930;BME280;58588;48.102;19.682;2024-03-02T10:00:00;99009.91;;;13.69;100.00
70930;BME280;58588;48.102;19.682;2024-03-02T10:03:02;99009.41;;;13.79;100.00
70930;BME280;58588;48.102;19.682;2024-03-02T10:06:18;99015.56;;;13.68;100.00
70930;BME280;58588;48.102;19.682;2024-03-02T10:09:27;99013.03;;;13.66;100.00
70930;BME280;58588;48.102;19.682;2024-03-02T10:12:29;99005.59;;;13.61;100.00
70930;BME280;58588;48.102;19.682;2024-03-02T10:15:32;99004.53;;;13.62;100.00
70930;BME280;58588;48.102;19.682;2024-03-02T10:18:34;99001.88;;;13.56;100.00
70930;BME280;58588;48.102;19.682;2024-03-02T10:21:40;99006.41;;;13.62;100.00
70930;BME280;58588;48.102;19.682;2024-03-02T10:24:43;99006.03;;;13.52;100.00
70930;BME280;58588;48.102;19.682;2024-03-02T10:27:50;99004.69;;;13.99;100.00
70930;BME280;58588;48.102;19.682;2024-03-02T10:30:53;98995.75;;;14.24;100.00
70930;BME280;58588;48.102;19.682;2024-03-02T10:33:56;99006.88;;;14.15;100.00
70930;BME280;58588;48.102;19.682;2024-03-02T10:36:59;98998.88;;;14.20;100.00
70930;BME280;58588;48.102;19.682;2024-03-02T10:40:04;99002.38;;;14.03;100.00
70930;BME280;58588;48.102;19.682;2024-03-02T10:43:07;98999.47;;;14.54;100.00
70930;BME280;58588;48.102;19.682;2024-03-02T10:46:11;98995.78;;;14.42;100.00
70930;BME280;58588;48.102;19.682;2024-03-02T10:49:13;98992.38;;;14.28;100.00
70930;BME280;58588;48.102;19.682;2024-03-02T10:52:15;98999.72;;;14.21;100.00
70930;BME280;58588;48.102;19.682;2024-03-02T10:55:17;98978.44;;;14.86;100.00
70930;BME280;58588;48.102;19.682;2024-03-02T10:58:20;98981.91;;;14.75;100.00
70930;BME280;58588;48.102;19.682;2024-03-02T11:01:24;98971.50;;;14.90;100.00
70930;BME280;58588;48.102;19.682;2024-03-02T11:04:27;98976.75;;;15.22;100.00
70930;BME280;58588;48.102;19.682;2024-03-02T11:07:30;98970.16;;;14.81;100.00
70930;BME280;58588;48.102;19.682;2024-03-02T11:10:37;98978.75;;;14.35;100.00
70930;BME280;58588;48.102;19.682;2024-03-02T11:13:42;98978.88;;;14.22;100.00
70930;BME280;58588;48.102;19.682;2024-03-02T11:16:53;98971.84;;;14.14;100.00
70930;BME280;58588;48.102;19.682;2024-03-02T11:19:56;98976.66;;;14.12;100.00
70930;BME280;58588;48.102;19.682;2024-03-02T11:23:05;98967.88;;;14.16;100.00
70930;BME280;58588;48.102;19.682;2024-03-02T11:26:17;98975.44;;;14.08;100.00
70930;BME280;58588;48.102;19.682;2024-03-02T11:29:44;98966.56;;;14.44;100.00
70930;BME280;58588;48.102;19.682;2024-03-02T11:32:55;98960.75;;;14.40;100.00
70930;BME280;58588;48.102;19.682;2024-03-02T11:35:57;98961.91;;;14.26;100.00
70930;BME280;58588;48.102;19.682;2024-03-02T11:39:00;98962.47;;;14.35;100.00
70930;BME280;58588;48.102;19.682;2024-03-02T11:42:04;98960.19;;;14.57;100.00
70930;BME280;58588;48.102;19.682;2024-03-02T11:45:08;98948.22;;;14.64;100.00
70930;BME280;58588;48.102;19.682;2024-03-02T11:48:14;98948.44;;;14.99;100.00
70930;BME280;58588;48.102;19.682;2024-03-02T11:51:18;98942.03;;;15.12;100.00
70930;BME280;58588;48.102;19.682;2024-03-02T11:54:22;98943.69;;;15.13;100.00
70930;BME280;58588;48.102;19.682;2024-03-02T11:57:24;98943.38;;;15.03;100.00
70930;BME280;58588;48.102;19.682;2024-03-02T12:00:28;98946.34;;;15.32;99.82
70930;BME280;58588;48.102;19.682;2024-03-02T12:03:32;98949.56;;;14.92;100.00
70930;BME280;58588;48.102;19.682;2024-03-02T12:06:36;98951.56;;;14.41;100.00
70930;BME280;58588;48.102;19.682;2024-03-02T12:09:39;98955.38;;;14.95;100.00
70930;BME280;58588;48.102;19.682;2024-03-02T12:12:41;98956.72;;;14.50;100.00
70930;BME280;58588;48.102;19.682;2024-03-02T12:15:43;98954.50;;;14.15;100.00
70930;BME280;58588;48.102;19.682;2024-03-02T12:18:46;98948.19;;;14.21;100.00
70930;BME280;58588;48.102;19.682;2024-03-02T12:21:48;98955.75;;;14.19;100.00
70930;BME280;58588;48.102;19.682;2024-03-02T12:24:50;98948.44;;;13.95;100.00
70930;BME280;58588;48.102;19.682;2024-03-02T12:27:55;98956.84;;;13.55;100.00
70930;BME280;58588;48.102;19.682;2024-03-02T12:30:57;98964.28;;;13.66;100.00
70930;BME280;58588;48.102;19.682;2024-03-02T12:34:01;98954.44;;;13.72;100.00
70930;BME280;58588;48.102;19.682;2024-03-02T12:37:03;98948.38;;;13.76;100.00
70930;BME280;58588;48.102;19.682;2024-03-02T12:40:07;98961.00;;;13.89;100.00
70930;BME280;58588;48.102;19.682;2024-03-02T12:43:11;98948.59;;;13.75;100.00
70930;BME280;58588;48.102;19.682;2024-03-02T12:46:13;98943.03;;;13.95;100.00
70930;BME280;58588;48.102;19.682;2024-03-02T12:49:22;98947.16;;;13.97;100.00
70930;BME280;58588;48.102;19.682;2024-03-02T12:52:24;98937.47;;;14.08;100.00
70930;BME280;58588;48.102;19.682;2024-03-02T12:55:26;98947.31;;;14.27;100.00
70930;BME280;58588;48.102;19.682;2024-03-02T12:58:29;98938.44;;;14.38;100.00
70930;BME280;58588;48.102;19.682;2024-03-02T13:01:33;98936.75;;;14.62;100.00
70930;BME280;58588;48.102;19.682;2024-03-02T13:04:37;98938.53;;;14.07;100.00
70930;BME280;58588;48.102;19.682;2024-03-02T13:07:39;98933.31;;;14.30;100.00
70930;BME280;58588;48.102;19.682;2024-03-02T13:10:41;98937.06;;;14.11;100.00
70930;BME280;58588;48.102;19.682;2024-03-02T13:13:43;98932.00;;;13.89;100.00
70930;BME280;58588;48.102;19.682;2024-03-02T13:16:45;98934.72;;;14.14;100.00
70930;BME280;58588;48.102;19.682;2024-03-02T13:19:53;98932.81;;;14.15;100.00
70930;BME280;58588;48.102;19.682;2024-03-02T13:22:55;98939.34;;;14.32;100.00
70930;BME280;58588;48.102;19.682;2024-03-02T13:25:57;98946.06;;;14.30;100.00
70930;BME280;58588;48.102;19.682;2024-03-02T13:28:59;98942.47;;;14.11;100.00
70930;BME280;58588;48.102;19.682;2024-03-02T13:32:01;98934.97;;;14.31;100.00
70930;BME280;58588;48.102;19.682;2024-03-02T13:35:05;98939.38;;;14.07;100.00
70930;BME280;58588;48.102;19.682;2024-03-02T13:38:07;98939.03;;;13.72;100.00
70930;BME280;58588;48.102;19.682;2024-03-02T13:41:09;98942.97;;;13.76;100.00
70930;BME280;58588;48.102;19.682;2024-03-02T13:44:15;98944.19;;;13.80;100.00
70930;BME280;58588;48.102;19.682;2024-03-02T13:47:22;98945.69;;;13.76;100.00
70930;BME280;58588;48.102;19.682;2024-03-02T13:50:25;98942.88;;;13.58;100.00
70930;BME280;58588;48.102;19.682;2024-03-02T13:53:27;98945.41;;;13.53;100.00
70930;BME280;58588;48.102;19.682;2024-03-02T13:56:29;98956.34;;;13.39;100.00
70930;BME280;58588;48.102;19.682;2024-03-02T13:59:32;98949.31;;;13.19;100.00
70930;BME280;58588;48.102;19.682;2024-03-02T14:02:34;98950.50;;;13.36;100.00
70930;BME280;58588;48.102;19.682;2024-03-02T14:05:37;98950.88;;;13.46;100.00
70930;BME280;58588;48.102;19.682;2024-03-02T14:08:43;98956.84;;;13.17;100.00
70930;BME280;58588;48.102;19.682;2024-03-02T14:11:45;98955.25;;;13.02;100.00
70930;BME280;58588;48.102;19.682;2024-03-02T14:14:47;98957.44;;;13.25;100.00
70930;BME280;58588;48.102;19.682;2024-03-02T14:17:51;98958.94;;;13.15;100.00
70930;BME280;58588;48.102;19.682;2024-03-02T14:20:54;98966.28;;;13.07;100.00
70930;BME280;58588;48.102;19.682;2024-03-02T14:23:57;98962.91;;;13.12;100.00
70930;BME280;58588;48.102;19.682;2024-03-02T14:26:59;98958.38;;;12.99;100.00
70930;BME280;58588;48.102;19.682;2024-03-02T14:30:04;98964.66;;;12.93;100.00
70930;BME280;58588;48.102;19.682;2024-03-02T14:33:07;98961.41;;;12.65;100.00
70930;BME280;58588;48.102;19.682;2024-03-02T14:36:10;98969.16;;;12.54;100.00
70930;BME280;58588;48.102;19.682;2024-03-02T14:39:12;98972.94;;;12.14;100.00
70930;BME280;58588;48.102;19.682;2024-03-02T14:42:14;98972.31;;;11.98;100.00
70930;BME280;58588;48.102;19.682;2024-03-02T14:45:17;98973.56;;;12.02;100.00
70930;BME280;58588;48.102;19.682;2024-03-02T14:48:20;98964.84;;;12.00;100.00
70930;BME280;58588;48.102;19.682;2024-03-02T14:51:24;98967.13;;;11.84;100.00
70930;BME280;58588;48.102;19.682;2024-03-02T14:54:26;98970.44;;;11.99;100.00
70930;BME280;58588;48.102;19.682;2024-03-02T14:57:29;98965.03;;;11.99;100.00
70930;BME280;58588;48.102;19.682;2024-03-02T15:00:31;98979.56;;;12.38;100.00
70930;BME280;58588;48.102;19.682;2024-03-02T15:03:33;98972.91;;;12.33;100.00
70930;BME280;58588;48.102;19.682;2024-03-02T15:06:37;98968.31;;;12.54;100.00
70930;BME280;58588;48.102;19.682;2024-03-02T15:09:39;98968.22;;;12.80;100.00
70930;BME280;58588;48.102;19.682;2024-03-02T15:12:42;98963.66;;;12.81;100.00
70930;BME280;58588;48.102;19.682;2024-03-02T15:15:44;98966.19;;;12.63;100.00
70930;BME280;58588;48.102;19.682;2024-03-02T15:19:32;98975.19;;;12.50;100.00
70930;BME280;58588;48.102;19.682;2024-03-02T15:22:53;98981.03;;;12.33;100.00
70930;BME280;58588;48.102;19.682;2024-03-02T15:25:55;98984.38;;;12.36;100.00
70930;BME280;58588;48.102;19.682;2024-03-02T15:28:58;98983.31;;;12.03;100.00
70930;BME280;58588;48.102;19.682;2024-03-02T15:32:00;98989.97;;;12.08;100.00
70930;BME280;58588;48.102;19.682;2024-03-02T15:35:06;98991.03;;;12.13;100.00
70930;BME280;58588;48.102;19.682;2024-03-02T15:38:10;98989.97;;;12.21;100.00
70930;BME280;58588;48.102;19.682;2024-03-02T15:41:15;98987.47;;;11.93;100.00
70930;BME280;58588;48.102;19.682;2024-03-02T15:44:20;98983.94;;;11.86;100.00
70930;BME280;58588;48.102;19.682;2024-03-02T15:47:21;98994.75;;;11.86;100.00
70930;BME280;58588;48.102;19.682;2024-03-02T15:50:23;98983.91;;;11.79;100.00